createdAt,value
2019-04-30T00:01:18.932Z,17.80
2019-04-30T00:03:55.814Z,17.70
2019-04-30T00:06:27.413Z,17.70
2019-04-30T00:08:57.857Z,17.70
2019-04-30T00:11:28.429Z,17.60
2019-04-30T00:13:59.091Z,17.60
2019-04-30T00:16:31.100Z,17.60
2019-04-30T00:19:01.921Z,17.60
2019-04-30T00:21:32.458Z,17.50
2019-04-30T00:24:06.242Z,17.50
2019-04-30T00:26:35.558Z,17.50
2019-04-30T00:29:06.230Z,17.40
2019-04-30T00:31:36.830Z,17.40
2019-04-30T00:34:07.396Z,17.40
2019-04-30T00:36:39.106Z,17.40
2019-04-30T00:39:13.334Z,17.30
2019-04-30T00:41:44.116Z,17.30
2019-04-30T00:44:15.262Z,17.30
2019-04-30T00:46:47.920Z,17.20
2019-04-30T00:49:22.895Z,17.20
2019-04-30T00:51:54.727Z,17.10
2019-04-30T00:54:29.302Z,17.10
2019-04-30T00:56:57.482Z,17.10
2019-04-30T00:59:27.382Z,17.10
2019-04-30T01:02:27.654Z,17.00
2019-04-30T01:04:52.852Z,17.00
2019-04-30T01:07:23.558Z,16.90
2019-04-30T01:09:55.293Z,16.90
2019-04-30T01:12:30.970Z,16.90
2019-04-30T01:14:59.021Z,16.90
2019-04-30T01:17:30.648Z,16.90
2019-04-30T01:20:01.755Z,16.80
2019-04-30T01:22:35.192Z,16.80
2019-04-30T01:25:08.937Z,16.80
2019-04-30T01:27:45.461Z,16.80
2019-04-30T01:30:13.224Z,16.80
2019-04-30T01:32:44.399Z,16.70
2019-04-30T01:35:14.920Z,16.70
2019-04-30T01:37:45.459Z,16.70
2019-04-30T01:40:16.313Z,16.70
2019-04-30T01:42:48.483Z,16.60
2019-04-30T01:45:23.210Z,16.60
2019-04-30T01:47:51.414Z,16.60
2019-04-30T01:50:22.050Z,16.50
2019-04-30T01:52:55.813Z,16.50
2019-04-30T01:55:34.989Z,16.50
2019-04-30T01:58:24.509Z,16.40
2019-04-30T02:00:59.396Z,16.40
2019-04-30T02:03:30.113Z,16.40
2019-04-30T02:06:00.722Z,16.40
2019-04-30T02:08:31.376Z,16.30
2019-04-30T02:11:02.000Z,16.30
2019-04-30T02:13:34.548Z,16.30
2019-04-30T02:16:06.250Z,16.30
2019-04-30T02:18:36.756Z,16.20
2019-04-30T02:21:08.984Z,16.20
2019-04-30T02:23:42.592Z,16.20
2019-04-30T02:26:13.230Z,16.10
2019-04-30T02:28:43.785Z,16.10
2019-04-30T02:31:14.345Z,16.10
2019-04-30T02:33:50.107Z,16.10
2019-04-30T02:36:46.066Z,16.10
2019-04-30T02:39:20.327Z,16.00
2019-04-30T02:41:51.860Z,16.00
2019-04-30T02:44:24.353Z,16.00
2019-04-30T02:47:00.377Z,15.90
2019-04-30T02:49:32.277Z,15.90
2019-04-30T02:52:05.358Z,15.90
2019-04-30T02:54:39.645Z,15.90
2019-04-30T02:57:12.406Z,15.90
2019-04-30T03:00:01.255Z,15.90
2019-04-30T03:02:33.119Z,15.80
2019-04-30T03:05:05.296Z,15.80
2019-04-30T03:07:35.885Z,15.80
2019-04-30T03:10:10.008Z,15.80
2019-04-30T03:12:40.573Z,15.80
2019-04-30T03:15:11.831Z,15.80
2019-04-30T03:18:00.745Z,15.70
2019-04-30T03:20:56.118Z,15.60
2019-04-30T03:23:29.200Z,15.60
2019-04-30T03:25:59.841Z,15.50
2019-04-30T03:28:30.646Z,15.60
2019-04-30T03:31:04.369Z,15.50
2019-04-30T03:33:33.659Z,15.50
2019-04-30T03:36:04.207Z,15.50
2019-04-30T03:38:34.805Z,15.50
2019-04-30T03:41:05.363Z,15.50
2019-04-30T03:43:36.034Z,15.50
2019-04-30T03:46:06.545Z,15.40
2019-04-30T03:48:39.462Z,15.40
2019-04-30T03:51:10.638Z,15.40
2019-04-30T03:53:42.767Z,15.40
2019-04-30T03:56:13.482Z,15.30
2019-04-30T03:58:44.133Z,15.30
2019-04-30T04:01:24.443Z,15.30
2019-04-30T04:04:32.113Z,15.30
2019-04-30T04:07:24.379Z,15.20
2019-04-30T04:10:01.926Z,15.20
2019-04-30T04:12:32.473Z,15.20
2019-04-30T04:15:04.161Z,15.20
2019-04-30T04:17:35.091Z,15.30
2019-04-30T04:20:06.028Z,15.30
2019-04-30T04:22:36.837Z,15.30
2019-04-30T04:25:12.787Z,15.30
2019-04-30T04:27:40.088Z,15.30
2019-04-30T04:30:11.422Z,15.40
2019-04-30T04:32:42.113Z,15.40
2019-04-30T04:35:13.155Z,15.40
2019-04-30T04:37:43.758Z,15.40
2019-04-30T04:40:14.461Z,15.40
2019-04-30T04:42:45.000Z,15.50
2019-04-30T04:45:15.584Z,15.50
2019-04-30T04:47:46.186Z,15.60
2019-04-30T04:50:17.079Z,15.60
2019-04-30T04:52:49.542Z,15.60
2019-04-30T04:55:22.343Z,15.70
2019-04-30T04:57:53.039Z,15.70
2019-04-30T05:00:23.922Z,15.80
2019-04-30T05:03:09.746Z,15.90
2019-04-30T05:05:40.384Z,15.90
2019-04-30T05:08:10.992Z,15.90
2019-04-30T05:10:43.099Z,16.00
2019-04-30T05:13:14.717Z,16.00
2019-04-30T05:15:45.381Z,16.10
2019-04-30T05:18:15.911Z,16.20
2019-04-30T05:20:46.471Z,16.40
2019-04-30T05:23:17.094Z,16.70
2019-04-30T05:25:49.090Z,17.00
2019-04-30T05:28:21.664Z,17.20
2019-04-30T05:30:52.208Z,17.50
2019-04-30T05:33:22.902Z,18.00
2019-04-30T05:35:54.541Z,18.40
2019-04-30T05:38:25.070Z,18.80
2019-04-30T05:40:55.619Z,19.20
2019-04-30T05:43:26.287Z,19.60
2019-04-30T05:45:58.550Z,20.00
2019-04-30T05:48:29.252Z,20.40
2019-04-30T05:50:59.904Z,20.70
2019-04-30T05:53:30.458Z,21.10
2019-04-30T05:56:03.320Z,21.40
2019-04-30T05:58:35.852Z,21.70
2019-04-30T06:01:06.449Z,22.00
2019-04-30T06:03:38.599Z,22.30
2019-04-30T06:06:11.526Z,22.50
2019-04-30T06:08:50.785Z,22.80
2019-04-30T06:11:39.372Z,23.00
2019-04-30T06:14:24.336Z,23.20
2019-04-30T06:17:12.250Z,23.50
2019-04-30T06:19:42.903Z,23.80
2019-04-30T06:22:13.595Z,24.10
2019-04-30T06:24:45.458Z,24.40
2019-04-30T06:27:16.187Z,24.60
2019-04-30T06:29:48.835Z,24.80
2019-04-30T06:32:19.846Z,25.00
2019-04-30T06:34:51.173Z,25.30
2019-04-30T06:37:22.039Z,25.60
2019-04-30T06:39:52.714Z,25.80
2019-04-30T06:42:23.661Z,26.10
2019-04-30T06:44:54.701Z,26.30
2019-04-30T06:47:33.058Z,26.40
2019-04-30T06:50:01.273Z,26.10
2019-04-30T06:52:31.206Z,25.70
2019-04-30T06:55:01.743Z,25.30
2019-04-30T06:57:32.351Z,24.90
2019-04-30T07:00:03.145Z,24.70
2019-04-30T07:02:33.764Z,24.90
2019-04-30T07:05:04.562Z,25.30
2019-04-30T07:07:39.164Z,25.70
2019-04-30T07:10:29.482Z,26.20
2019-04-30T07:13:21.884Z,26.70
2019-04-30T07:15:52.456Z,27.10
2019-04-30T07:18:23.037Z,27.50
2019-04-30T07:20:53.560Z,27.80
2019-04-30T07:23:24.113Z,28.10
2019-04-30T07:25:54.640Z,28.50
2019-04-30T07:28:41.259Z,28.80
2019-04-30T07:31:08.703Z,29.00
2019-04-30T07:33:29.876Z,29.30
2019-04-30T07:36:01.807Z,29.50
2019-04-30T07:38:35.776Z,29.50
2019-04-30T07:41:05.932Z,29.50
2019-04-30T07:43:39.048Z,29.60
2019-04-30T07:46:09.581Z,29.80
2019-04-30T07:48:40.430Z,29.90
2019-04-30T07:51:11.683Z,30.10
2019-04-30T07:53:42.489Z,30.30
2019-04-30T07:56:24.357Z,30.50
2019-04-30T07:58:46.533Z,30.70
2019-04-30T08:01:19.383Z,30.90
2019-04-30T08:04:20.406Z,31.20
2019-04-30T08:06:52.530Z,31.50
2019-04-30T08:09:23.108Z,31.70
2019-04-30T08:11:53.680Z,31.90
2019-04-30T08:14:24.664Z,32.10
2019-04-30T08:16:55.374Z,32.20
2019-04-30T08:19:25.959Z,32.40
2019-04-30T08:21:58.491Z,32.50
2019-04-30T08:24:29.250Z,32.60
2019-04-30T08:27:01.291Z,32.70
2019-04-30T08:29:31.938Z,32.70
2019-04-30T08:32:02.498Z,32.60
2019-04-30T08:34:36.329Z,32.60
2019-04-30T08:37:16.680Z,32.60
2019-04-30T08:39:39.745Z,32.50
2019-04-30T08:42:10.532Z,32.40
2019-04-30T08:44:41.081Z,32.30
2019-04-30T08:47:11.685Z,32.20
2019-04-30T08:49:42.399Z,32.10
2019-04-30T08:52:13.060Z,32.00
2019-04-30T08:54:43.644Z,31.90
2019-04-30T08:57:14.181Z,31.90
2019-04-30T08:59:44.737Z,31.80
2019-04-30T09:02:16.538Z,31.60
2019-04-30T09:04:49.556Z,31.50
2019-04-30T09:07:20.104Z,31.10
2019-04-30T09:09:51.862Z,30.50
2019-04-30T09:12:22.463Z,30.00
2019-04-30T09:14:53.046Z,29.40
2019-04-30T09:17:23.554Z,28.90
2019-04-30T09:19:54.113Z,28.40
2019-04-30T09:22:24.663Z,27.90
2019-04-30T09:24:55.228Z,27.60
2019-04-30T09:27:25.748Z,27.20
2019-04-30T09:29:56.352Z,26.80
2019-04-30T09:32:28.980Z,26.50
2019-04-30T09:34:59.187Z,26.20
2019-04-30T09:37:30.608Z,25.90
2019-04-30T09:40:02.449Z,25.70
2019-04-30T09:42:34.451Z,25.40
2019-04-30T09:45:05.625Z,25.20
2019-04-30T09:47:36.261Z,25.00
2019-04-30T09:50:09.170Z,24.80
2019-04-30T09:52:40.405Z,24.60
2019-04-30T09:55:11.385Z,24.50
2019-04-30T09:57:42.278Z,24.30
2019-04-30T10:00:14.899Z,24.20
2019-04-30T10:02:45.498Z,24.10
2019-04-30T10:05:18.242Z,24.00
2019-04-30T10:07:49.389Z,23.90
2019-04-30T10:10:25.332Z,23.70
2019-04-30T10:12:55.857Z,23.70
2019-04-30T10:15:50.033Z,23.60
2019-04-30T10:18:20.398Z,23.40
2019-04-30T10:20:50.950Z,23.40
2019-04-30T10:23:21.509Z,23.30
2019-04-30T10:25:52.218Z,23.20
2019-04-30T10:28:24.157Z,23.10
2019-04-30T10:30:54.823Z,23.00
2019-04-30T10:33:25.429Z,23.00
2019-04-30T10:35:56.118Z,22.90
2019-04-30T10:38:27.046Z,22.80
2019-04-30T10:40:58.841Z,22.80
2019-04-30T10:43:31.920Z,22.70
2019-04-30T10:46:01.749Z,22.60
2019-04-30T10:48:32.488Z,22.60
2019-04-30T10:51:03.040Z,22.50
2019-04-30T10:53:33.603Z,22.50
2019-04-30T10:56:04.208Z,22.40
2019-04-30T10:58:34.826Z,22.40
2019-04-30T11:01:05.771Z,22.30
2019-04-30T11:03:36.399Z,22.30
2019-04-30T11:06:08.672Z,22.20
2019-04-30T11:08:39.266Z,22.20
2019-04-30T11:11:09.995Z,22.20
2019-04-30T11:13:40.692Z,22.10
2019-04-30T11:16:13.205Z,22.10
2019-04-30T11:18:43.690Z,22.10
2019-04-30T11:21:14.612Z,22.00
2019-04-30T11:23:45.552Z,22.00
2019-04-30T11:26:16.840Z,21.90
2019-04-30T11:28:47.753Z,21.90
2019-04-30T11:31:40.096Z,21.80
2019-04-30T11:34:10.764Z,21.80
2019-04-30T11:36:41.464Z,21.70
2019-04-30T11:39:18.610Z,21.70
2019-04-30T11:41:49.651Z,21.70
2019-04-30T11:44:30.271Z,21.70
2019-04-30T11:47:33.140Z,21.70
2019-04-30T11:50:06.469Z,21.60
2019-04-30T11:52:37.219Z,21.60
2019-04-30T11:55:09.982Z,21.60
2019-04-30T11:57:41.068Z,21.60
2019-04-30T12:00:18.767Z,21.60
2019-04-30T12:02:52.826Z,21.50
2019-04-30T12:05:22.397Z,21.50
2019-04-30T12:08:16.412Z,21.50
2019-04-30T12:11:06.122Z,21.50
2019-04-30T12:13:36.703Z,21.50
2019-04-30T12:16:09.180Z,21.50
2019-04-30T12:18:39.891Z,21.50
2019-04-30T12:21:10.469Z,21.50
2019-04-30T12:23:42.205Z,21.40
2019-04-30T12:26:12.824Z,21.40
2019-04-30T12:28:45.203Z,21.40
2019-04-30T12:31:15.826Z,21.40
2019-04-30T12:33:46.432Z,21.40
2019-04-30T12:36:18.818Z,21.40
2019-04-30T12:38:49.375Z,21.40
2019-04-30T12:41:19.886Z,21.40
2019-04-30T12:43:50.580Z,21.40
2019-04-30T12:46:21.374Z,21.30
2019-04-30T12:49:03.868Z,21.30
2019-04-30T12:51:51.991Z,21.30
2019-04-30T12:54:40.214Z,21.20
2019-04-30T12:57:29.718Z,21.20
2019-04-30T13:00:00.613Z,21.20
2019-04-30T13:02:31.264Z,21.20
2019-04-30T13:05:01.861Z,21.30
2019-04-30T13:07:33.090Z,21.30
2019-04-30T13:10:05.075Z,21.30
2019-04-30T13:12:36.632Z,21.30
2019-04-30T13:15:09.780Z,21.30
2019-04-30T13:17:40.314Z,21.30
2019-04-30T13:20:18.587Z,21.30
2019-04-30T13:22:44.366Z,21.20
2019-04-30T13:25:27.508Z,21.20
2019-04-30T13:27:51.349Z,21.20
2019-04-30T13:30:24.496Z,21.20
2019-04-30T13:33:12.143Z,21.20
2019-04-30T13:35:42.892Z,21.20
2019-04-30T13:38:28.183Z,21.20
2019-04-30T13:41:32.841Z,21.20
2019-04-30T13:44:05.123Z,21.20
2019-04-30T13:46:35.787Z,21.20
2019-04-30T13:49:06.770Z,21.20
2019-04-30T13:51:37.535Z,21.20
2019-04-30T13:54:09.551Z,21.20
2019-04-30T13:56:40.215Z,21.20
2019-04-30T13:59:12.181Z,21.30
2019-04-30T14:01:44.518Z,21.30
2019-04-30T14:04:24.968Z,21.20
2019-04-30T14:07:20.467Z,21.20
2019-04-30T14:09:52.504Z,21.20
2019-04-30T14:12:23.195Z,21.20
2019-04-30T14:14:53.764Z,21.20
2019-04-30T14:17:24.317Z,21.20
2019-04-30T14:19:54.987Z,21.20
2019-04-30T14:22:25.504Z,21.30
2019-04-30T14:24:56.096Z,21.30
2019-04-30T14:27:26.849Z,21.30
2019-04-30T14:29:59.230Z,21.30
2019-04-30T14:32:29.967Z,21.30
2019-04-30T14:35:00.527Z,21.30
2019-04-30T14:37:31.863Z,21.30
2019-04-30T14:40:03.350Z,21.30
2019-04-30T14:42:36.866Z,21.30
2019-04-30T14:45:18.520Z,21.30
2019-04-30T14:48:23.148Z,21.30
2019-04-30T14:50:52.733Z,21.20
2019-04-30T14:53:58.874Z,21.20
2019-04-30T14:56:36.329Z,21.20
2019-04-30T14:59:24.469Z,21.20
2019-04-30T15:02:11.284Z,21.10
2019-04-30T15:04:42.940Z,21.10
2019-04-30T15:07:13.560Z,21.20
2019-04-30T15:09:44.100Z,21.20
2019-04-30T15:12:16.132Z,21.20
2019-04-30T15:14:46.789Z,21.20
2019-04-30T15:17:17.775Z,21.20
2019-04-30T15:19:49.338Z,21.30
2019-04-30T15:22:21.210Z,21.30
2019-04-30T15:24:53.336Z,21.30
2019-04-30T15:27:24.041Z,21.30
2019-04-30T15:29:57.021Z,21.30
2019-04-30T15:32:28.578Z,21.30
2019-04-30T15:34:59.277Z,21.30
2019-04-30T15:37:29.847Z,21.30
2019-04-30T15:40:00.510Z,21.30
2019-04-30T15:42:31.092Z,21.30
2019-04-30T15:45:01.598Z,21.30
2019-04-30T15:47:32.163Z,21.30
2019-04-30T15:50:03.703Z,21.30
2019-04-30T15:52:34.456Z,21.30
2019-04-30T15:55:05.590Z,21.30
2019-04-30T15:57:53.267Z,21.40
2019-04-30T16:00:24.632Z,21.40
2019-04-30T16:03:09.740Z,21.40
2019-04-30T16:05:42.875Z,21.30
2019-04-30T16:08:39.023Z,21.40
2019-04-30T16:11:19.533Z,21.30
2019-04-30T16:14:14.948Z,21.30
2019-04-30T16:16:50.535Z,21.30
2019-04-30T16:19:21.226Z,21.30
2019-04-30T16:21:51.887Z,21.30
2019-04-30T16:24:22.488Z,21.30
2019-04-30T16:26:53.149Z,21.30
2019-04-30T16:29:23.718Z,21.30
2019-04-30T16:31:54.477Z,21.40
2019-04-30T16:34:25.060Z,21.40
2019-04-30T16:36:55.603Z,21.40
2019-04-30T16:39:26.220Z,21.40
2019-04-30T16:41:56.767Z,21.40
2019-04-30T16:44:29.144Z,21.40
2019-04-30T16:47:03.365Z,21.40
2019-04-30T16:49:33.203Z,21.40
2019-04-30T16:52:05.726Z,21.30
2019-04-30T16:54:36.419Z,21.30
2019-04-30T16:57:07.129Z,21.30
2019-04-30T16:59:41.525Z,21.30
2019-04-30T17:02:13.263Z,21.30
2019-04-30T17:05:04.127Z,21.30
2019-04-30T17:07:59.246Z,21.30
2019-04-30T17:10:52.398Z,21.20
2019-04-30T17:13:32.424Z,21.20
2019-04-30T17:16:15.196Z,21.30
2019-04-30T17:18:45.768Z,21.30
2019-04-30T17:21:16.417Z,21.30
2019-04-30T17:23:50.658Z,21.30
2019-04-30T17:26:20.331Z,21.30
2019-04-30T17:28:50.987Z,21.30
2019-04-30T17:31:21.611Z,21.30
2019-04-30T17:33:52.108Z,21.30
2019-04-30T17:36:22.644Z,21.30
2019-04-30T17:38:53.196Z,21.30
2019-04-30T17:41:25.227Z,21.30
2019-04-30T17:43:55.848Z,21.30
2019-04-30T17:46:28.594Z,21.30
2019-04-30T17:48:59.354Z,21.30
2019-04-30T17:51:29.929Z,21.20
2019-04-30T17:54:15.922Z,21.20
2019-04-30T17:56:47.416Z,21.20
2019-04-30T17:59:17.950Z,21.10
2019-04-30T18:01:54.352Z,21.10
2019-04-30T18:04:25.092Z,21.10
2019-04-30T18:06:55.606Z,21.10
2019-04-30T18:09:29.073Z,21.10
2019-04-30T18:11:59.614Z,21.10
2019-04-30T18:14:30.359Z,21.10
2019-04-30T18:17:01.017Z,21.10
2019-04-30T18:19:38.612Z,21.10
2019-04-30T18:22:14.226Z,21.00
2019-04-30T18:24:56.796Z,21.00
2019-04-30T18:27:51.988Z,21.00
2019-04-30T18:30:25.901Z,21.00
2019-04-30T18:32:58.399Z,20.90
2019-04-30T18:35:28.906Z,20.90
2019-04-30T18:38:00.676Z,20.80
2019-04-30T18:40:31.373Z,20.80
2019-04-30T18:43:03.346Z,20.80
2019-04-30T18:45:34.067Z,20.80
2019-04-30T18:48:04.595Z,20.70
2019-04-30T18:50:35.236Z,20.70
2019-04-30T18:53:11.713Z,20.70
2019-04-30T18:55:43.490Z,20.60
2019-04-30T18:58:14.197Z,20.60
2019-04-30T19:00:45.677Z,20.50
2019-04-30T19:03:19.135Z,20.50
2019-04-30T19:05:52.996Z,20.40
2019-04-30T19:08:30.471Z,20.40
2019-04-30T19:11:09.455Z,20.40
2019-04-30T19:13:59.651Z,20.30
2019-04-30T19:16:49.590Z,20.20
2019-04-30T19:19:45.361Z,20.20
2019-04-30T19:22:16.106Z,20.10
2019-04-30T19:24:55.686Z,20.10
2019-04-30T19:27:19.274Z,20.00
2019-04-30T19:29:51.717Z,20.00
2019-04-30T19:32:22.189Z,19.90
2019-04-30T19:34:52.752Z,19.90
2019-04-30T19:37:23.347Z,19.90
2019-04-30T19:39:55.098Z,19.80
2019-04-30T19:42:25.923Z,19.80
2019-04-30T19:45:08.338Z,19.70
2019-04-30T19:47:30.770Z,19.70
2019-04-30T19:50:02.597Z,19.60
2019-04-30T19:52:33.312Z,19.60
2019-04-30T19:55:04.085Z,19.60
2019-04-30T19:57:34.642Z,19.50
2019-04-30T20:00:06.687Z,19.50
2019-04-30T20:02:39.114Z,19.40
2019-04-30T20:05:10.144Z,19.40
2019-04-30T20:07:41.033Z,19.30
2019-04-30T20:10:12.212Z,19.30
2019-04-30T20:12:42.783Z,19.20
2019-04-30T20:15:19.338Z,19.20
2019-04-30T20:17:47.524Z,19.20
2019-04-30T20:20:18.884Z,19.10
2019-04-30T20:22:51.886Z,19.10
2019-04-30T20:25:21.860Z,19.00
2019-04-30T20:27:52.568Z,19.00
2019-04-30T20:30:23.163Z,19.00
2019-04-30T20:32:53.840Z,18.90
2019-04-30T20:35:24.385Z,18.90
2019-04-30T20:38:32.351Z,18.90
2019-04-30T20:41:04.624Z,18.70
2019-04-30T20:43:35.247Z,18.70
2019-04-30T20:46:05.916Z,18.70
2019-04-30T20:48:39.295Z,18.60
2019-04-30T20:51:10.322Z,18.60
2019-04-30T20:53:41.110Z,18.50
2019-04-30T20:56:11.603Z,18.50
2019-04-30T20:58:54.853Z,18.50
2019-04-30T21:01:14.497Z,18.50
2019-04-30T21:03:47.556Z,18.40
2019-04-30T21:06:19.773Z,18.40
2019-04-30T21:08:50.669Z,18.30
2019-04-30T21:11:21.282Z,18.30
2019-04-30T21:13:51.912Z,18.30
2019-04-30T21:16:22.524Z,18.20
2019-04-30T21:18:53.194Z,18.20
2019-04-30T21:21:23.746Z,18.20
2019-04-30T21:23:54.314Z,18.10
2019-04-30T21:26:24.840Z,18.10
2019-04-30T21:28:58.041Z,18.00
2019-04-30T21:31:46.624Z,18.00
2019-04-30T21:34:40.823Z,18.00
2019-04-30T21:37:11.355Z,17.90
2019-04-30T21:39:42.017Z,17.90
2019-04-30T21:42:12.576Z,17.90
2019-04-30T21:44:43.298Z,17.80
2019-04-30T21:47:13.965Z,17.80
2019-04-30T21:49:44.553Z,17.80
2019-04-30T21:52:15.093Z,17.70
2019-04-30T21:54:45.697Z,17.70
2019-04-30T21:57:17.432Z,17.70
2019-04-30T21:59:48.754Z,17.60
2019-04-30T22:02:19.449Z,17.60
2019-04-30T22:04:51.489Z,17.60
2019-04-30T22:07:22.024Z,17.50
2019-04-30T22:09:52.586Z,17.50
2019-04-30T22:12:23.236Z,17.50
2019-04-30T22:14:53.780Z,17.50
2019-04-30T22:17:24.319Z,17.40
2019-04-30T22:19:56.072Z,17.40
2019-04-30T22:22:26.577Z,17.40
2019-04-30T22:24:57.136Z,17.30
2019-04-30T22:27:27.684Z,17.30
2019-04-30T22:29:58.230Z,17.30
2019-04-30T22:32:30.608Z,17.30
2019-04-30T22:35:20.093Z,17.20
2019-04-30T22:37:53.494Z,17.20
2019-04-30T22:40:24.066Z,17.10
2019-04-30T22:42:54.644Z,17.10
2019-04-30T22:45:33.219Z,17.10
2019-04-30T22:48:03.740Z,17.10
2019-04-30T22:50:34.341Z,17.00
2019-04-30T22:53:04.960Z,17.00
2019-04-30T22:55:35.503Z,17.00
2019-04-30T22:58:06.333Z,17.00
2019-04-30T23:00:42.997Z,16.90
2019-04-30T23:03:17.200Z,16.90
2019-04-30T23:05:48.000Z,16.90
2019-04-30T23:08:18.632Z,16.80
2019-04-30T23:10:50.371Z,16.80
2019-04-30T23:13:20.980Z,16.80
2019-04-30T23:15:55.448Z,16.80
2019-04-30T23:18:26.087Z,16.80
2019-04-30T23:20:56.625Z,16.80
2019-04-30T23:23:27.146Z,16.80
2019-04-30T23:25:57.706Z,16.70
2019-04-30T23:28:28.405Z,16.70
2019-04-30T23:31:00.161Z,16.70
2019-04-30T23:33:31.137Z,16.70
2019-04-30T23:36:01.660Z,16.70
2019-04-30T23:38:32.109Z,16.60
2019-04-30T23:41:02.611Z,16.60
2019-04-30T23:43:33.203Z,16.60
2019-04-30T23:46:03.753Z,16.60
2019-04-30T23:48:34.287Z,16.50
2019-04-30T23:51:04.848Z,16.50
2019-04-30T23:53:35.445Z,16.50
2019-04-30T23:56:06.119Z,16.50
2019-04-30T23:58:36.618Z,16.40
